LSGGLESO

Guest
Details From LSGG - Geneva
To LESO - San Sebastian
Flight Number -
Tags Generated
Created
Modified
Stats Distance 378 nm / 701 km
Max Altitude 0 ft / 0 m
Waypoints 3
Social Downloads 3
Likes 0
Share VATSIM

Download

Looking for another format? Having issues loading an existing format? Contact us
Advertisement - Login to hide

Notes

Generated

Route

LSGG BTZ LESO

ID Type Via Altitude Latitude Longitude Leg Dist Tot Dist Heading (true) Name
O LSGG APT - 0 ft / 0 m 46.23482˚ 6.09953˚ - 0 nm - -
BTZ VOR - 0 ft / 0 m 43.46664˚ -1.51028˚ 363 nm 363 nm 246° / 240° BIARRITZ BAYONNE ANGLET VOR-DM
O LESO APT - 0 ft / 0 m 43.35035˚ -1.79740˚ 14 nm 378 nm 241° / 241° -

Altitude Profile

Advertisement - Login to hide

Weather


0- 5 10 15 20 25 30 35+ Temperature / ° C

Clouds and Precipitation
Forecast for 2017-12-15 12:00 UTC. Updated 2 hours ago

Ground ~20,000 ft ~40,000 ft Winds

LSGG

Details ICAO LSGG (GVA)
Name Geneva
Region Switzerland
Timezone Europe/Zurich (UTC+1.0)
Stats Elevation 1,410 ft / 430 m (AMSL)
Location 46.237755° 6.106173°
Runways 2
Magnetic Variation 1.738° E

METAR

LSGG 151220Z 21011KT 9999 VCSH FEW020 SCT040 BKN070 06/00 Q1003 NOSIG

Decode

TAF

TAF TAF LSGG 151125Z 1512/1618 23010KT 9999 FEW015 SCT045 TX07/1515Z TN00/1606Z TX04/1615Z PROB30 TEMPO 1518/1522 4500 SHRASN BKN012 BECMG 1522/1524 2000 SN VV008 BECMG 1605/1607 9999 NSW SCT010 BKN025

Decode

Departure Runways

ID Width Length Bearing (true) Bearing (mag) Surface Threshold Offset Overrun Length
05 180 ft / 55 m 12,796 ft / 3,900 m 45.43° 43.69° Concrete 1,079 ft / 329 m 66 ft / 20 m
05L 98 ft / 30 m 2,701 ft / 823 m 45.44° 43.70° Grass 610 ft / 186 m 0 ft / 0 m
23 180 ft / 55 m 12,796 ft / 3,900 m 225.45° 223.71° Concrete 0 ft / 0 m 66 ft / 20 m
23R 98 ft / 30 m 2,701 ft / 823 m 225.45° 223.71° Grass 997 ft / 304 m 0 ft / 0 m

LESO

Details ICAO LESO (EAS)
Name San_Sebastian
Region Spain
Timezone Europe/Madrid (UTC+1.0)
Stats Elevation 14 ft / 4 m (AMSL)
Location 43.356520° -1.790611°
Runways 1
Magnetic Variation 0.297° W

METAR

LESO 151230Z 23011KT 190V260 9999 FEW025 SCT041 09/07 Q1011

Decode

TAF

TAF LESO 151100Z 1512/1612 27009KT 9999 SCT018 BKN030 TX13/1514Z TN06/1606Z BECMG 1516/1519 33014KT PROB40 TEMPO 1512/1612 33015G25KT TEMPO 1512/1612 3000 SHRA SCT030TCU PROB40 TEMPO 1512/1612 1000 +SHRA TSRA SCT025CB

Decode

Destination Runways

ID Width Length Bearing (true) Bearing (mag) Surface Threshold Offset Overrun Length
04 148 ft / 45 m 5,762 ft / 1,756 m 38.68° 38.98° Asphalt 0 ft / 0 m 0 ft / 0 m
22 148 ft / 45 m 5,762 ft / 1,756 m 218.69° 218.99° Asphalt 0 ft / 0 m 0 ft / 0 m